sensor_id;sensor_type;location;lat;lon;timestamp;P1;durP1;ratioP1;P2;durP2;ratioP2
16900;SDS011;8567;52.540;6.434;2024-01-07T00:00:22;2.85;;;2.75;;
16900;SDS011;8567;52.540;6.434;2024-01-07T00:02:49;2.70;;;2.60;;
16900;SDS011;8567;52.540;6.434;2024-01-07T00:05:16;3.10;;;3.00;;
16900;SDS011;8567;52.540;6.434;2024-01-07T00:07:43;3.00;;;2.85;;
16900;SDS011;8567;52.540;6.434;2024-01-07T00:10:11;3.40;;;3.20;;
16900;SDS011;8567;52.540;6.434;2024-01-07T00:12:38;3.30;;;3.10;;
16900;SDS011;8567;52.540;6.434;2024-01-07T00:15:05;3.20;;;3.10;;
16900;SDS011;8567;52.540;6.434;2024-01-07T00:17:33;3.70;;;3.40;;
16900;SDS011;8567;52.540;6.434;2024-01-07T00:19:59;3.30;;;3.20;;
16900;SDS011;8567;52.540;6.434;2024-01-07T00:22:27;3.08;;;2.95;;
16900;SDS011;8567;52.540;6.434;2024-01-07T00:24:53;2.90;;;2.80;;
16900;SDS011;8567;52.540;6.434;2024-01-07T00:27:22;3.33;;;3.17;;
16900;SDS011;8567;52.540;6.434;2024-01-07T00:29:49;3.60;;;3.40;;
16900;SDS011;8567;52.540;6.434;2024-01-07T00:32:16;3.03;;;2.92;;
16900;SDS011;8567;52.540;6.434;2024-01-07T00:34:43;3.25;;;3.15;;
16900;SDS011;8567;52.540;6.434;2024-01-07T00:37:10;3.08;;;2.97;;
16900;SDS011;8567;52.540;6.434;2024-01-07T00:39:37;2.80;;;2.70;;
16900;SDS011;8567;52.540;6.434;2024-01-07T00:42:04;3.20;;;3.10;;
16900;SDS011;8567;52.540;6.434;2024-01-07T00:44:33;3.60;;;3.40;;
16900;SDS011;8567;52.540;6.434;2024-01-07T00:47:00;3.10;;;3.00;;
16900;SDS011;8567;52.540;6.434;2024-01-07T00:49:27;3.17;;;3.05;;
16900;SDS011;8567;52.540;6.434;2024-01-07T00:51:54;3.30;;;3.20;;
16900;SDS011;8567;52.540;6.434;2024-01-07T00:54:21;3.33;;;3.22;;
16900;SDS011;8567;52.540;6.434;2024-01-07T00:56:48;3.03;;;2.92;;
16900;SDS011;8567;52.540;6.434;2024-01-07T00:59:15;3.55;;;3.40;;
16900;SDS011;8567;52.540;6.434;2024-01-07T01:01:43;2.97;;;2.88;;
16900;SDS011;8567;52.540;6.434;2024-01-07T01:04:10;3.15;;;3.00;;
16900;SDS011;8567;52.540;6.434;2024-01-07T01:06:37;2.90;;;2.80;;
16900;SDS011;8567;52.540;6.434;2024-01-07T01:09:04;3.30;;;3.20;;
16900;SDS011;8567;52.540;6.434;2024-01-07T01:11:31;3.13;;;3.03;;
16900;SDS011;8567;52.540;6.434;2024-01-07T01:13:58;3.33;;;3.22;;
16900;SDS011;8567;52.540;6.434;2024-01-07T01:16:25;3.55;;;3.45;;
16900;SDS011;8567;52.540;6.434;2024-01-07T01:18:54;3.28;;;3.10;;
16900;SDS011;8567;52.540;6.434;2024-01-07T01:21:21;3.30;;;3.20;;
16900;SDS011;8567;52.540;6.434;2024-01-07T01:23:48;3.35;;;3.25;;
16900;SDS011;8567;52.540;6.434;2024-01-07T01:26:15;3.65;;;3.45;;
16900;SDS011;8567;52.540;6.434;2024-01-07T01:28:42;3.63;;;3.42;;
16900;SDS011;8567;52.540;6.434;2024-01-07T01:31:12;3.63;;;3.42;;
16900;SDS011;8567;52.540;6.434;2024-01-07T01:33:39;3.17;;;3.08;;
16900;SDS011;8567;52.540;6.434;2024-01-07T01:36:08;3.17;;;3.08;;
16900;SDS011;8567;52.540;6.434;2024-01-07T01:38:35;3.28;;;3.17;;
16900;SDS011;8567;52.540;6.434;2024-01-07T01:41:03;3.70;;;3.50;;
16900;SDS011;8567;52.540;6.434;2024-01-07T01:43:30;3.53;;;3.33;;
16900;SDS011;8567;52.540;6.434;2024-01-07T01:45:56;3.50;;;3.40;;
16900;SDS011;8567;52.540;6.434;2024-01-07T01:48:25;3.42;;;3.33;;
16900;SDS011;8567;52.540;6.434;2024-01-07T01:51:00;3.47;;;3.28;;
16900;SDS011;8567;52.540;6.434;2024-01-07T01:53:29;3.33;;;3.22;;
16900;SDS011;8567;52.540;6.434;2024-01-07T01:55:58;3.20;;;3.08;;
16900;SDS011;8567;52.540;6.434;2024-01-07T01:58:28;3.80;;;3.60;;
16900;SDS011;8567;52.540;6.434;2024-01-07T02:00:56;3.65;;;3.45;;
16900;SDS011;8567;52.540;6.434;2024-01-07T02:03:23;3.30;;;3.20;;
16900;SDS011;8567;52.540;6.434;2024-01-07T02:05:49;3.78;;;3.60;;
16900;SDS011;8567;52.540;6.434;2024-01-07T02:08:17;3.53;;;3.42;;
16900;SDS011;8567;52.540;6.434;2024-01-07T02:10:46;3.30;;;3.20;;
16900;SDS011;8567;52.540;6.434;2024-01-07T02:13:13;3.55;;;3.40;;
16900;SDS011;8567;52.540;6.434;2024-01-07T02:15:40;3.38;;;3.28;;
16900;SDS011;8567;52.540;6.434;2024-01-07T02:18:07;3.63;;;3.47;;
16900;SDS011;8567;52.540;6.434;2024-01-07T02:20:34;3.70;;;3.55;;
16900;SDS011;8567;52.540;6.434;2024-01-07T02:23:02;3.72;;;3.53;;
16900;SDS011;8567;52.540;6.434;2024-01-07T02:25:34;3.30;;;3.20;;
16900;SDS011;8567;52.540;6.434;2024-01-07T02:28:01;3.30;;;3.20;;
16900;SDS011;8567;52.540;6.434;2024-01-07T02:30:28;3.85;;;3.65;;
16900;SDS011;8567;52.540;6.434;2024-01-07T02:32:55;3.88;;;3.67;;
16900;SDS011;8567;52.540;6.434;2024-01-07T02:35:22;4.00;;;3.70;;
16900;SDS011;8567;52.540;6.434;2024-01-07T02:37:48;3.67;;;3.47;;
16900;SDS011;8567;52.540;6.434;2024-01-07T02:40:15;3.70;;;3.50;;
16900;SDS011;8567;52.540;6.434;2024-01-07T02:42:43;3.58;;;3.47;;
16900;SDS011;8567;52.540;6.434;2024-01-07T02:45:11;3.40;;;3.30;;
16900;SDS011;8567;52.540;6.434;2024-01-07T02:47:37;4.10;;;3.80;;
16900;SDS011;8567;52.540;6.434;2024-01-07T02:50:04;3.75;;;3.55;;
16900;SDS011;8567;52.540;6.434;2024-01-07T02:52:32;3.92;;;3.72;;
16900;SDS011;8567;52.540;6.434;2024-01-07T02:54:59;3.72;;;3.53;;
16900;SDS011;8567;52.540;6.434;2024-01-07T02:57:26;3.55;;;3.45;;
16900;SDS011;8567;52.540;6.434;2024-01-07T02:59:55;3.63;;;3.53;;
16900;SDS011;8567;52.540;6.434;2024-01-07T03:02:22;3.90;;;3.70;;
16900;SDS011;8567;52.540;6.434;2024-01-07T03:04:49;3.80;;;3.60;;
16900;SDS011;8567;52.540;6.434;2024-01-07T03:07:15;4.32;;;4.13;;
16900;SDS011;8567;52.540;6.434;2024-01-07T03:09:42;3.33;;;3.22;;
16900;SDS011;8567;52.540;6.434;2024-01-07T03:12:09;3.55;;;3.35;;
16900;SDS011;8567;52.540;6.434;2024-01-07T03:14:36;3.80;;;3.60;;
16900;SDS011;8567;52.540;6.434;2024-01-07T03:17:04;3.45;;;3.35;;
16900;SDS011;8567;52.540;6.434;2024-01-07T03:19:32;3.90;;;3.70;;
16900;SDS011;8567;52.540;6.434;2024-01-07T03:21:59;3.40;;;3.30;;
16900;SDS011;8567;52.540;6.434;2024-01-07T03:24:26;3.83;;;3.63;;
16900;SDS011;8567;52.540;6.434;2024-01-07T03:26:53;3.97;;;3.78;;
16900;SDS011;8567;52.540;6.434;2024-01-07T03:29:21;3.50;;;3.35;;
16900;SDS011;8567;52.540;6.434;2024-01-07T03:31:47;3.70;;;3.58;;
16900;SDS011;8567;52.540;6.434;2024-01-07T03:34:17;3.55;;;3.45;;
16900;SDS011;8567;52.540;6.434;2024-01-07T03:36:44;3.78;;;3.58;;
16900;SDS011;8567;52.540;6.434;2024-01-07T03:39:11;3.58;;;3.47;;
16900;SDS011;8567;52.540;6.434;2024-01-07T03:41:38;3.47;;;3.38;;
16900;SDS011;8567;52.540;6.434;2024-01-07T03:44:07;3.72;;;3.58;;
16900;SDS011;8567;52.540;6.434;2024-01-07T03:46:34;3.60;;;3.45;;
16900;SDS011;8567;52.540;6.434;2024-01-07T03:49:01;3.85;;;3.67;;
16900;SDS011;8567;52.540;6.434;2024-01-07T03:51:29;3.75;;;3.55;;
16900;SDS011;8567;52.540;6.434;2024-01-07T03:53:56;3.72;;;3.58;;
16900;SDS011;8567;52.540;6.434;2024-01-07T03:56:22;3.22;;;3.13;;
16900;SDS011;8567;52.540;6.434;2024-01-07T03:58:49;3.70;;;3.50;;
16900;SDS011;8567;52.540;6.434;2024-01-07T04:01:17;3.95;;;3.75;;
16900;SDS011;8567;52.540;6.434;2024-01-07T04:03:44;4.22;;;4.03;;
16900;SDS011;8567;52.540;6.434;2024-01-07T04:06:11;3.70;;;3.55;;
16900;SDS011;8567;52.540;6.434;2024-01-07T04:08:40;3.40;;;3.30;;
16900;SDS011;8567;52.540;6.434;2024-01-07T04:11:06;3.97;;;3.78;;
16900;SDS011;8567;52.540;6.434;2024-01-07T04:13:34;3.92;;;3.72;;
16900;SDS011;8567;52.540;6.434;2024-01-07T04:16:00;3.80;;;3.65;;
16900;SDS011;8567;52.540;6.434;2024-01-07T04:18:27;3.65;;;3.50;;
16900;SDS011;8567;52.540;6.434;2024-01-07T04:20:54;3.65;;;3.53;;
16900;SDS011;8567;52.540;6.434;2024-01-07T04:23:21;3.53;;;3.42;;
16900;SDS011;8567;52.540;6.434;2024-01-07T04:25:49;3.85;;;3.65;;
16900;SDS011;8567;52.540;6.434;2024-01-07T04:28:16;3.47;;;3.35;;
16900;SDS011;8567;52.540;6.434;2024-01-07T04:30:43;3.95;;;3.75;;
16900;SDS011;8567;52.540;6.434;2024-01-07T04:33:10;3.72;;;3.53;;
16900;SDS011;8567;52.540;6.434;2024-01-07T04:35:38;4.10;;;3.90;;
16900;SDS011;8567;52.540;6.434;2024-01-07T04:38:05;3.10;;;3.00;;
16900;SDS011;8567;52.540;6.434;2024-01-07T04:40:32;3.80;;;3.60;;
16900;SDS011;8567;52.540;6.434;2024-01-07T04:43:00;3.55;;;3.38;;
16900;SDS011;8567;52.540;6.434;2024-01-07T04:45:27;3.53;;;3.38;;
16900;SDS011;8567;52.540;6.434;2024-01-07T04:47:54;3.42;;;3.33;;
16900;SDS011;8567;52.540;6.434;2024-01-07T04:50:21;3.95;;;3.75;;
16900;SDS011;8567;52.540;6.434;2024-01-07T04:52:49;3.58;;;3.47;;
16900;SDS011;8567;52.540;6.434;2024-01-07T04:55:16;3.40;;;3.30;;
16900;SDS011;8567;52.540;6.434;2024-01-07T04:57:43;3.80;;;3.63;;
16900;SDS011;8567;52.540;6.434;2024-01-07T05:00:12;4.07;;;3.88;;
16900;SDS011;8567;52.540;6.434;2024-01-07T05:02:39;4.35;;;4.15;;
16900;SDS011;8567;52.540;6.434;2024-01-07T05:05:07;3.72;;;3.63;;
16900;SDS011;8567;52.540;6.434;2024-01-07T05:07:34;3.33;;;3.22;;
16900;SDS011;8567;52.540;6.434;2024-01-07T05:10:01;4.00;;;3.80;;
16900;SDS011;8567;52.540;6.434;2024-01-07T05:12:29;3.40;;;3.30;;
16900;SDS011;8567;52.540;6.434;2024-01-07T05:14:56;3.75;;;3.63;;
16900;SDS011;8567;52.540;6.434;2024-01-07T05:17:24;3.63;;;3.53;;
16900;SDS011;8567;52.540;6.434;2024-01-07T05:19:51;4.13;;;3.92;;
16900;SDS011;8567;52.540;6.434;2024-01-07T05:22:18;3.60;;;3.50;;
16900;SDS011;8567;52.540;6.434;2024-01-07T05:24:45;3.70;;;3.50;;
16900;SDS011;8567;52.540;6.434;2024-01-07T05:27:12;3.45;;;3.35;;
16900;SDS011;8567;52.540;6.434;2024-01-07T05:29:38;3.58;;;3.45;;
16900;SDS011;8567;52.540;6.434;2024-01-07T05:32:05;3.88;;;3.67;;
16900;SDS011;8567;52.540;6.434;2024-01-07T05:34:34;3.70;;;3.50;;
16900;SDS011;8567;52.540;6.434;2024-01-07T05:37:01;3.67;;;3.53;;
16900;SDS011;8567;52.540;6.434;2024-01-07T05:39:28;3.85;;;3.65;;
16900;SDS011;8567;52.540;6.434;2024-01-07T05:41:54;3.72;;;3.53;;
16900;SDS011;8567;52.540;6.434;2024-01-07T05:44:21;3.60;;;3.47;;
16900;SDS011;8567;52.540;6.434;2024-01-07T05:46:48;3.60;;;3.47;;
16900;SDS011;8567;52.540;6.434;2024-01-07T05:49:15;3.38;;;3.28;;
16900;SDS011;8567;52.540;6.434;2024-01-07T05:51:43;3.63;;;3.47;;
16900;SDS011;8567;52.540;6.434;2024-01-07T05:54:10;3.47;;;3.38;;
16900;SDS011;8567;52.540;6.434;2024-01-07T05:56:40;3.40;;;3.30;;
16900;SDS011;8567;52.540;6.434;2024-01-07T05:59:08;3.42;;;3.28;;
16900;SDS011;8567;52.540;6.434;2024-01-07T06:01:35;3.20;;;3.10;;
16900;SDS011;8567;52.540;6.434;2024-01-07T06:04:02;3.47;;;3.38;;
16900;SDS011;8567;52.540;6.434;2024-01-07T06:06:29;3.63;;;3.42;;
16900;SDS011;8567;52.540;6.434;2024-01-07T06:08:58;3.83;;;3.63;;
16900;SDS011;8567;52.540;6.434;2024-01-07T06:11:25;3.45;;;3.35;;
16900;SDS011;8567;52.540;6.434;2024-01-07T06:13:51;3.90;;;3.70;;
16900;SDS011;8567;52.540;6.434;2024-01-07T06:16:19;4.07;;;3.88;;
16900;SDS011;8567;52.540;6.434;2024-01-07T06:18:45;3.60;;;3.50;;
16900;SDS011;8567;52.540;6.434;2024-01-07T06:21:13;3.63;;;3.53;;
16900;SDS011;8567;52.540;6.434;2024-01-07T06:23:40;3.70;;;3.50;;
16900;SDS011;8567;52.540;6.434;2024-01-07T06:26:08;3.28;;;3.17;;
16900;SDS011;8567;52.540;6.434;2024-01-07T06:28:35;3.80;;;3.65;;
16900;SDS011;8567;52.540;6.434;2024-01-07T06:31:02;3.28;;;3.17;;
16900;SDS011;8567;52.540;6.434;2024-01-07T06:33:30;3.33;;;3.22;;
16900;SDS011;8567;52.540;6.434;2024-01-07T06:35:58;3.63;;;3.53;;
16900;SDS011;8567;52.540;6.434;2024-01-07T06:38:26;3.42;;;3.33;;
16900;SDS011;8567;52.540;6.434;2024-01-07T06:40:52;3.70;;;3.58;;
16900;SDS011;8567;52.540;6.434;2024-01-07T06:43:27;3.45;;;3.35;;
16900;SDS011;8567;52.540;6.434;2024-01-07T06:45:54;3.55;;;3.45;;
16900;SDS011;8567;52.540;6.434;2024-01-07T06:48:21;3.30;;;3.20;;
16900;SDS011;8567;52.540;6.434;2024-01-07T06:50:48;3.28;;;3.17;;
16900;SDS011;8567;52.540;6.434;2024-01-07T06:53:16;3.67;;;3.53;;
16900;SDS011;8567;52.540;6.434;2024-01-07T06:55:43;3.80;;;3.60;;
16900;SDS011;8567;52.540;6.434;2024-01-07T06:58:10;3.38;;;3.28;;
16900;SDS011;8567;52.540;6.434;2024-01-07T07:00:38;3.53;;;3.40;;
16900;SDS011;8567;52.540;6.434;2024-01-07T07:03:05;3.88;;;3.72;;
16900;SDS011;8567;52.540;6.434;2024-01-07T07:05:33;3.35;;;3.25;;
16900;SDS011;8567;52.540;6.434;2024-01-07T07:08:01;4.00;;;3.80;;
16900;SDS011;8567;52.540;6.434;2024-01-07T07:10:28;4.53;;;4.00;;
16900;SDS011;8567;52.540;6.434;2024-01-07T07:12:56;3.42;;;3.33;;
16900;SDS011;8567;52.540;6.434;2024-01-07T07:15:23;3.63;;;3.47;;
16900;SDS011;8567;52.540;6.434;2024-01-07T07:17:53;3.60;;;3.50;;
16900;SDS011;8567;52.540;6.434;2024-01-07T07:20:20;3.80;;;3.60;;
16900;SDS011;8567;52.540;6.434;2024-01-07T07:22:47;3.50;;;3.40;;
16900;SDS011;8567;52.540;6.434;2024-01-07T07:25:13;3.78;;;3.58;;
16900;SDS011;8567;52.540;6.434;2024-01-07T07:27:40;3.40;;;3.30;;
16900;SDS011;8567;52.540;6.434;2024-01-07T07:30:08;3.42;;;3.33;;
16900;SDS011;8567;52.540;6.434;2024-01-07T07:32:38;3.88;;;3.67;;
16900;SDS011;8567;52.540;6.434;2024-01-07T07:35:08;3.50;;;3.40;;
16900;SDS011;8567;52.540;6.434;2024-01-07T07:37:35;3.55;;;3.45;;
16900;SDS011;8567;52.540;6.434;2024-01-07T07:40:02;3.53;;;3.42;;
16900;SDS011;8567;52.540;6.434;2024-01-07T07:42:29;3.85;;;3.65;;
16900;SDS011;8567;52.540;6.434;2024-01-07T07:44:56;3.75;;;3.55;;
16900;SDS011;8567;52.540;6.434;2024-01-07T07:47:23;3.38;;;3.28;;
16900;SDS011;8567;52.540;6.434;2024-01-07T07:49:51;3.38;;;3.28;;
16900;SDS011;8567;52.540;6.434;2024-01-07T07:52:19;3.83;;;3.63;;
16900;SDS011;8567;52.540;6.434;2024-01-07T07:54:48;3.67;;;3.55;;
16900;SDS011;8567;52.540;6.434;2024-01-07T07:57:15;3.60;;;3.40;;
16900;SDS011;8567;52.540;6.434;2024-01-07T07:59:42;3.40;;;3.30;;
16900;SDS011;8567;52.540;6.434;2024-01-07T08:02:09;3.30;;;3.17;;
16900;SDS011;8567;52.540;6.434;2024-01-07T08:04:36;3.45;;;3.35;;
16900;SDS011;8567;52.540;6.434;2024-01-07T08:07:06;3.10;;;3.00;;
16900;SDS011;8567;52.540;6.434;2024-01-07T08:09:35;3.42;;;3.30;;
16900;SDS011;8567;52.540;6.434;2024-01-07T08:12:03;3.13;;;3.03;;
16900;SDS011;8567;52.540;6.434;2024-01-07T08:14:31;3.40;;;3.30;;
16900;SDS011;8567;52.540;6.434;2024-01-07T08:17:00;3.00;;;2.90;;
16900;SDS011;8567;52.540;6.434;2024-01-07T08:19:31;3.03;;;2.92;;
16900;SDS011;8567;52.540;6.434;2024-01-07T08:21:58;3.08;;;2.97;;
16900;SDS011;8567;52.540;6.434;2024-01-07T08:24:25;2.90;;;2.80;;
16900;SDS011;8567;52.540;6.434;2024-01-07T08:26:54;3.00;;;2.90;;
16900;SDS011;8567;52.540;6.434;2024-01-07T08:29:21;2.90;;;2.80;;
16900;SDS011;8567;52.540;6.434;2024-01-07T08:31:48;2.88;;;2.78;;
16900;SDS011;8567;52.540;6.434;2024-01-07T08:34:14;2.90;;;2.80;;
16900;SDS011;8567;52.540;6.434;2024-01-07T08:36:42;3.20;;;3.10;;
16900;SDS011;8567;52.540;6.434;2024-01-07T08:39:09;3.60;;;3.30;;
16900;SDS011;8567;52.540;6.434;2024-01-07T08:41:36;2.60;;;2.50;;
16900;SDS011;8567;52.540;6.434;2024-01-07T08:44:05;2.83;;;2.72;;
16900;SDS011;8567;52.540;6.434;2024-01-07T08:46:33;2.80;;;2.70;;
16900;SDS011;8567;52.540;6.434;2024-01-07T08:49:01;2.67;;;2.58;;
16900;SDS011;8567;52.540;6.434;2024-01-07T08:51:29;2.85;;;2.70;;
16900;SDS011;8567;52.540;6.434;2024-01-07T08:53:56;2.88;;;2.70;;
16900;SDS011;8567;52.540;6.434;2024-01-07T08:56:24;2.70;;;2.50;;
16900;SDS011;8567;52.540;6.434;2024-01-07T08:58:51;3.05;;;2.95;;
16900;SDS011;8567;52.540;6.434;2024-01-07T09:01:19;2.78;;;2.58;;
16900;SDS011;8567;52.540;6.434;2024-01-07T09:03:46;3.05;;;2.95;;
16900;SDS011;8567;52.540;6.434;2024-01-07T09:06:12;2.90;;;2.72;;
16900;SDS011;8567;52.540;6.434;2024-01-07T09:08:39;3.45;;;3.25;;
16900;SDS011;8567;52.540;6.434;2024-01-07T09:11:07;3.00;;;2.90;;
16900;SDS011;8567;52.540;6.434;2024-01-07T09:13:36;3.15;;;2.95;;
16900;SDS011;8567;52.540;6.434;2024-01-07T09:16:03;2.95;;;2.85;;
16900;SDS011;8567;52.540;6.434;2024-01-07T09:18:32;3.08;;;2.95;;
16900;SDS011;8567;52.540;6.434;2024-01-07T09:20:58;3.00;;;2.80;;
16900;SDS011;8567;52.540;6.434;2024-01-07T09:23:25;4.00;;;3.17;;
16900;SDS011;8567;52.540;6.434;2024-01-07T09:25:52;3.80;;;3.50;;
16900;SDS011;8567;52.540;6.434;2024-01-07T09:28:19;3.75;;;3.55;;
16900;SDS011;8567;52.540;6.434;2024-01-07T09:30:47;3.45;;;3.30;;
16900;SDS011;8567;52.540;6.434;2024-01-07T09:33:13;3.00;;;2.90;;
16900;SDS011;8567;52.540;6.434;2024-01-07T09:35:42;3.90;;;3.40;;
16900;SDS011;8567;52.540;6.434;2024-01-07T09:38:09;3.30;;;3.10;;
16900;SDS011;8567;52.540;6.434;2024-01-07T09:40:37;5.45;;;3.78;;
16900;SDS011;8567;52.540;6.434;2024-01-07T09:43:05;3.10;;;3.00;;
16900;SDS011;8567;52.540;6.434;2024-01-07T09:45:35;8.18;;;5.00;;
16900;SDS011;8567;52.540;6.434;2024-01-07T09:48:05;8.40;;;5.43;;
16900;SDS011;8567;52.540;6.434;2024-01-07T09:50:32;9.00;;;6.72;;
16900;SDS011;8567;52.540;6.434;2024-01-07T09:53:00;10.73;;;6.72;;
16900;SDS011;8567;52.540;6.434;2024-01-07T09:55:30;7.75;;;6.03;;
16900;SDS011;8567;52.540;6.434;2024-01-07T09:58:06;9.40;;;6.50;;
16900;SDS011;8567;52.540;6.434;2024-01-07T10:00:33;7.88;;;6.78;;
16900;SDS011;8567;52.540;6.434;2024-01-07T10:03:00;7.10;;;6.22;;
16900;SDS011;8567;52.540;6.434;2024-01-07T10:05:28;7.38;;;6.75;;
16900;SDS011;8567;52.540;6.434;2024-01-07T10:07:54;6.47;;;5.90;;
16900;SDS011;8567;52.540;6.434;2024-01-07T10:10:24;7.78;;;6.38;;
16900;SDS011;8567;52.540;6.434;2024-01-07T10:12:51;7.55;;;6.50;;
16900;SDS011;8567;52.540;6.434;2024-01-07T10:15:18;6.15;;;5.65;;
16900;SDS011;8567;52.540;6.434;2024-01-07T10:17:45;5.88;;;5.47;;
16900;SDS011;8567;52.540;6.434;2024-01-07T10:20:14;8.60;;;7.68;;
16900;SDS011;8567;52.540;6.434;2024-01-07T10:22:46;10.23;;;9.32;;
16900;SDS011;8567;52.540;6.434;2024-01-07T10:25:16;8.70;;;7.90;;
16900;SDS011;8567;52.540;6.434;2024-01-07T10:27:45;7.70;;;7.03;;
16900;SDS011;8567;52.540;6.434;2024-01-07T10:30:13;21.15;;;17.75;;
16900;SDS011;8567;52.540;6.434;2024-01-07T10:32:42;20.67;;;18.58;;
16900;SDS011;8567;52.540;6.434;2024-01-07T10:35:11;21.27;;;19.02;;
16900;SDS011;8567;52.540;6.434;2024-01-07T10:37:40;23.00;;;20.77;;
16900;SDS011;8567;52.540;6.434;2024-01-07T10:40:08;28.58;;;25.63;;
16900;SDS011;8567;52.540;6.434;2024-01-07T10:42:37;38.10;;;26.98;;
16900;SDS011;8567;52.540;6.434;2024-01-07T10:45:07;52.60;;;29.50;;
16900;SDS011;8567;52.540;6.434;2024-01-07T10:47:35;82.28;;;35.72;;
16900;SDS011;8567;52.540;6.434;2024-01-07T10:50:03;58.38;;;28.00;;
16900;SDS011;8567;52.540;6.434;2024-01-07T10:52:32;53.55;;;24.35;;
16900;SDS011;8567;52.540;6.434;2024-01-07T10:55:03;33.25;;;21.50;;
16900;SDS011;8567;52.540;6.434;2024-01-07T10:57:39;34.38;;;18.50;;
16900;SDS011;8567;52.540;6.434;2024-01-07T11:00:12;23.17;;;15.10;;
16900;SDS011;8567;52.540;6.434;2024-01-07T11:02:46;23.10;;;11.50;;
16900;SDS011;8567;52.540;6.434;2024-01-07T11:05:25;17.90;;;10.45;;
16900;SDS011;8567;52.540;6.434;2024-01-07T11:07:57;13.70;;;9.95;;
16900;SDS011;8567;52.540;6.434;2024-01-07T11:10:31;16.38;;;9.63;;
16900;SDS011;8567;52.540;6.434;2024-01-07T11:13:05;10.80;;;8.32;;
16900;SDS011;8567;52.540;6.434;2024-01-07T11:18:20;8.10;;;7.15;;
16900;SDS011;8567;52.540;6.434;2024-01-07T11:20:47;7.30;;;6.55;;
16900;SDS011;8567;52.540;6.434;2024-01-07T11:23:27;7.20;;;6.50;;
16900;SDS011;8567;52.540;6.434;2024-01-07T11:25:56;7.57;;;6.20;;
16900;SDS011;8567;52.540;6.434;2024-01-07T11:31:15;6.28;;;5.68;;
16900;SDS011;8567;52.540;6.434;2024-01-07T11:33:43;5.38;;;4.90;;
16900;SDS011;8567;52.540;6.434;2024-01-07T11:36:12;5.53;;;5.03;;
16900;SDS011;8567;52.540;6.434;2024-01-07T11:38:43;5.80;;;5.20;;
16900;SDS011;8567;52.540;6.434;2024-01-07T11:41:11;5.45;;;4.95;;
16900;SDS011;8567;52.540;6.434;2024-01-07T11:43:51;5.43;;;4.93;;
16900;SDS011;8567;52.540;6.434;2024-01-07T11:46:20;5.40;;;4.70;;
16900;SDS011;8567;52.540;6.434;2024-01-07T11:48:48;5.25;;;4.05;;
16900;SDS011;8567;52.540;6.434;2024-01-07T11:51:16;4.32;;;3.92;;
16900;SDS011;8567;52.540;6.434;2024-01-07T11:53:45;5.13;;;4.57;;
16900;SDS011;8567;52.540;6.434;2024-01-07T11:56:13;4.38;;;3.90;;
16900;SDS011;8567;52.540;6.434;2024-01-07T11:58:40;3.90;;;3.60;;
16900;SDS011;8567;52.540;6.434;2024-01-07T12:01:08;4.97;;;4.32;;
16900;SDS011;8567;52.540;6.434;2024-01-07T12:03:37;5.03;;;4.47;;
16900;SDS011;8567;52.540;6.434;2024-01-07T12:06:06;4.25;;;3.95;;
16900;SDS011;8567;52.540;6.434;2024-01-07T12:08:33;3.88;;;3.58;;
16900;SDS011;8567;52.540;6.434;2024-01-07T12:11:02;4.30;;;3.50;;
16900;SDS011;8567;52.540;6.434;2024-01-07T12:13:29;4.45;;;4.15;;
16900;SDS011;8567;52.540;6.434;2024-01-07T12:15:56;3.70;;;3.50;;
16900;SDS011;8567;52.540;6.434;2024-01-07T12:18:23;3.90;;;3.67;;
16900;SDS011;8567;52.540;6.434;2024-01-07T12:20:55;4.47;;;4.18;;
16900;SDS011;8567;52.540;6.434;2024-01-07T12:23:23;4.78;;;3.35;;
16900;SDS011;8567;52.540;6.434;2024-01-07T12:25:50;3.58;;;3.38;;
16900;SDS011;8567;52.540;6.434;2024-01-07T12:28:18;3.80;;;3.50;;
16900;SDS011;8567;52.540;6.434;2024-01-07T12:30:45;3.85;;;3.55;;
16900;SDS011;8567;52.540;6.434;2024-01-07T12:33:15;3.50;;;3.30;;
16900;SDS011;8567;52.540;6.434;2024-01-07T12:35:44;3.33;;;3.15;;
16900;SDS011;8567;52.540;6.434;2024-01-07T12:38:13;4.03;;;3.75;;
16900;SDS011;8567;52.540;6.434;2024-01-07T12:40:40;3.60;;;3.25;;
16900;SDS011;8567;52.540;6.434;2024-01-07T12:43:07;3.65;;;3.35;;
16900;SDS011;8567;52.540;6.434;2024-01-07T12:45:34;4.10;;;3.35;;
16900;SDS011;8567;52.540;6.434;2024-01-07T12:48:01;3.45;;;3.25;;
16900;SDS011;8567;52.540;6.434;2024-01-07T12:50:28;3.00;;;2.80;;
16900;SDS011;8567;52.540;6.434;2024-01-07T12:52:56;2.90;;;2.80;;
16900;SDS011;8567;52.540;6.434;2024-01-07T12:55:26;2.95;;;2.83;;
16900;SDS011;8567;52.540;6.434;2024-01-07T12:57:52;3.20;;;2.90;;
16900;SDS011;8567;52.540;6.434;2024-01-07T13:00:20;3.13;;;2.83;;
16900;SDS011;8567;52.540;6.434;2024-01-07T13:02:49;3.40;;;3.20;;
16900;SDS011;8567;52.540;6.434;2024-01-07T13:05:16;3.13;;;2.92;;
16900;SDS011;8567;52.540;6.434;2024-01-07T13:07:43;3.10;;;2.90;;
16900;SDS011;8567;52.540;6.434;2024-01-07T13:10:11;3.05;;;2.85;;
16900;SDS011;8567;52.540;6.434;2024-01-07T13:12:39;2.95;;;2.85;;
16900;SDS011;8567;52.540;6.434;2024-01-07T13:15:06;3.05;;;2.95;;
16900;SDS011;8567;52.540;6.434;2024-01-07T13:17:34;2.90;;;2.70;;
16900;SDS011;8567;52.540;6.434;2024-01-07T13:20:00;3.33;;;3.13;;
16900;SDS011;8567;52.540;6.434;2024-01-07T13:22:31;3.00;;;2.80;;
16900;SDS011;8567;52.540;6.434;2024-01-07T13:24:59;2.70;;;2.50;;
16900;SDS011;8567;52.540;6.434;2024-01-07T13:27:26;2.80;;;2.70;;
16900;SDS011;8567;52.540;6.434;2024-01-07T13:29:54;2.70;;;2.60;;
16900;SDS011;8567;52.540;6.434;2024-01-07T13:32:21;2.58;;;2.45;;
16900;SDS011;8567;52.540;6.434;2024-01-07T13:34:48;2.47;;;2.38;;
16900;SDS011;8567;52.540;6.434;2024-01-07T13:37:17;2.80;;;2.70;;
16900;SDS011;8567;52.540;6.434;2024-01-07T13:39:45;2.60;;;2.50;;
16900;SDS011;8567;52.540;6.434;2024-01-07T13:42:14;2.40;;;2.30;;
16900;SDS011;8567;52.540;6.434;2024-01-07T13:44:41;2.53;;;2.42;;
16900;SDS011;8567;52.540;6.434;2024-01-07T13:47:13;2.50;;;2.40;;
16900;SDS011;8567;52.540;6.434;2024-01-07T13:49:40;2.60;;;2.50;;
16900;SDS011;8567;52.540;6.434;2024-01-07T13:52:07;2.63;;;2.53;;
16900;SDS011;8567;52.540;6.434;2024-01-07T13:54:34;2.38;;;2.28;;
16900;SDS011;8567;52.540;6.434;2024-01-07T13:57:02;2.63;;;2.42;;
16900;SDS011;8567;52.540;6.434;2024-01-07T13:59:29;2.50;;;2.30;;
16900;SDS011;8567;52.540;6.434;2024-01-07T14:01:56;2.40;;;2.20;;
16900;SDS011;8567;52.540;6.434;2024-01-07T14:04:25;2.20;;;2.10;;
16900;SDS011;8567;52.540;6.434;2024-01-07T14:06:53;1.88;;;1.77;;
16900;SDS011;8567;52.540;6.434;2024-01-07T14:09:21;2.00;;;1.90;;
16900;SDS011;8567;52.540;6.434;2024-01-07T14:11:48;2.10;;;2.00;;
16900;SDS011;8567;52.540;6.434;2024-01-07T14:14:15;2.13;;;2.03;;
16900;SDS011;8567;52.540;6.434;2024-01-07T14:16:41;2.05;;;1.95;;
16900;SDS011;8567;52.540;6.434;2024-01-07T14:19:09;2.00;;;1.90;;
16900;SDS011;8567;52.540;6.434;2024-01-07T14:21:38;2.00;;;1.90;;
16900;SDS011;8567;52.540;6.434;2024-01-07T14:24:05;2.25;;;2.15;;
16900;SDS011;8567;52.540;6.434;2024-01-07T14:26:32;1.95;;;1.85;;
16900;SDS011;8567;52.540;6.434;2024-01-07T14:28:59;2.08;;;1.98;;
16900;SDS011;8567;52.540;6.434;2024-01-07T14:31:26;2.60;;;2.50;;
16900;SDS011;8567;52.540;6.434;2024-01-07T14:33:53;2.05;;;1.95;;
16900;SDS011;8567;52.540;6.434;2024-01-07T14:36:20;2.30;;;2.20;;
16900;SDS011;8567;52.540;6.434;2024-01-07T14:38:49;2.47;;;2.33;;
16900;SDS011;8567;52.540;6.434;2024-01-07T14:41:16;2.03;;;1.92;;
16900;SDS011;8567;52.540;6.434;2024-01-07T14:43:43;2.08;;;1.98;;
16900;SDS011;8567;52.540;6.434;2024-01-07T14:46:10;2.88;;;2.70;;
16900;SDS011;8567;52.540;6.434;2024-01-07T14:48:37;11.45;;;10.45;;
16900;SDS011;8567;52.540;6.434;2024-01-07T14:51:04;16.40;;;14.80;;
16900;SDS011;8567;52.540;6.434;2024-01-07T14:53:32;16.65;;;12.52;;
16900;SDS011;8567;52.540;6.434;2024-01-07T14:56:00;20.40;;;10.88;;
16900;SDS011;8567;52.540;6.434;2024-01-07T14:58:27;10.65;;;8.45;;
16900;SDS011;8567;52.540;6.434;2024-01-07T15:00:54;11.80;;;7.32;;
16900;SDS011;8567;52.540;6.434;2024-01-07T15:03:23;7.30;;;6.50;;
16900;SDS011;8567;52.540;6.434;2024-01-07T15:05:50;7.13;;;5.32;;
16900;SDS011;8567;52.540;6.434;2024-01-07T15:08:17;5.30;;;4.80;;